Albany, Indiana
Current Conditions -  °F | °C
As of 10:53 AM on Sunday 21 Dec 2014 (Local Time) from KMIE Reporting Station
Haze Haze  
Wind Chill: -5°   Ceiling: 5500
Heat Index: -1°   Visibility: 5mi
Dew Point: -4°   Wind: 10mph
Humidity: 79%   Direction: 150°SSE
Pressure: 30.29"   Gusts: NA
Location:  40.3°N, 85.24°W
Report Text: KMIE 211553Z 15009KT 5SM HZ OVC055 M01/M04 A3029 RMK AO2 SLP264 T10061039
Loading
Personal Weather Stations






























Interactive Weather Map New forecast layout! Learn more

10-Day Weather Forecast

Advertisements
Track Severe Weather on mobile